Time;durP1;ratioP1;P1;durP2;ratioP2;P2;SDS_P1;SDS_P2;PMS_P1;PMS_P2;Temp;Humidity;BMP_temperature;BMP_pressure;BME280_temperature;BME280_humidity;BME280_pressure;Samples;Min_cycle;Max_cycle;Signal;HPM_P1;HPM_P2
2024/04/17 00:53:47;;;;;;;10.07;3.65;;;;;;;23.47;42.42;97462.16;6258998;22;20374;-70
2024/04/17 01:32:13;;;;;;;6.07;3.13;;;;;;;23.23;42.70;97392.09;5917219;24;20005;-71
2024/04/17 02:11:29;;;;;;;9.32;3.10;;;;;;;23.08;43.06;97369.41;5744078;25;20077;-71
2024/04/17 02:15:13;;;;;;;;;;;;;;;;;;;;;
2024/04/17 02:21:19;;;;;;;8.60;3.33;;;;;;;23.08;42.98;97347.34;5830953;24;20032;-70
2024/04/17 02:23:47;;;;;;;9.73;3.05;;;;;;;23.06;42.91;97354.72;5831134;24;20004;-70
2024/04/17 02:26:13;;;;;;;10.63;3.40;;;;;;;23.03;43.20;97349.84;5797288;24;20015;-71
2024/04/17 02:28:38;;;;;;;6.85;3.00;;;;;;;23.06;42.97;97354.72;5790567;24;20016;-70
2024/04/17 02:31:04;;;;;;;8.10;3.10;;;;;;;23.06;43.04;97349.38;5790526;24;20001;-70
2024/04/17 02:33:29;;;;;;;8.95;3.10;;;;;;;23.07;43.03;97346.50;5791269;24;20078;-70
2024/04/17 02:35:55;;;;;;;7.60;3.08;;;;;;;23.07;43.00;97351.00;5791103;24;20011;-70
2024/04/17 02:38:20;;;;;;;6.95;2.88;;;;;;;23.04;42.86;97354.94;5774353;24;20001;-70
2024/04/17 02:40:46;;;;;;;8.25;2.90;;;;;;;23.01;43.18;97343.94;5783897;24;20001;-70
2024/04/17 02:43:11;;;;;;;7.40;3.50;;;;;;;23.00;43.13;97350.31;5796395;24;20083;-70
2024/04/17 02:45:40;;;;;;;7.32;3.10;;;;;;;23.01;42.91;97341.25;5949755;24;19998;-70
2024/04/17 02:48:06;;;;;;;7.53;3.25;;;;;;;22.95;43.32;97330.50;6001778;23;20001;-70
2024/04/17 02:50:31;;;;;;;9.07;3.20;;;;;;;22.98;43.04;97331.09;6085286;23;20029;-71
2024/04/17 02:52:57;;;;;;;8.00;3.05;;;;;;;22.94;43.14;97315.59;6128606;22;19994;-71
2024/04/17 02:55:23;;;;;;;9.63;3.25;;;;;;;22.95;43.22;97324.41;6333543;22;20023;-70
2024/04/17 02:57:49;;;;;;;9.57;4.35;;;;;;;22.95;43.05;97329.72;6433388;22;20066;-70
2024/04/17 03:00:17;;;;;;;12.25;4.63;;;;;;;22.93;43.39;97335.25;6529291;22;20058;-69
2024/04/17 03:02:43;;;;;;;10.73;5.05;;;;;;;22.92;43.32;97338.97;6485896;22;19989;-70
2024/04/17 03:05:08;;;;;;;11.90;4.95;;;;;;;22.88;43.09;97329.84;6400397;22;20071;-70
2024/04/17 03:07:34;;;;;;;12.70;5.43;;;;;;;22.86;43.25;97334.56;6398917;22;19989;-71
2024/04/17 03:09:59;;;;;;;9.95;5.57;;;;;;;22.88;43.14;97343.13;6484675;22;20367;-71
2024/04/17 03:12:25;;;;;;;12.75;5.97;;;;;;;22.86;43.09;97345.19;6442078;22;19988;-71
2024/04/17 03:14:50;;;;;;;12.15;5.47;;;;;;;22.81;43.16;97342.41;6441749;22;20003;-71
2024/04/17 03:17:18;;;;;;;9.77;5.60;;;;;;;22.81;43.39;97339.75;6442097;22;20001;-71
2024/04/17 03:19:45;;;;;;;12.82;5.88;;;;;;;22.81;43.29;97347.75;6400417;22;19992;-70
2024/04/17 03:22:11;;;;;;;12.30;5.82;;;;;;;22.77;43.30;97343.91;6442003;22;20430;-70
2024/04/17 03:24:36;;;;;;;8.77;4.88;;;;;;;22.80;43.74;97362.06;6482920;22;19993;-70
2024/04/17 03:27:02;;;;;;;8.13;4.60;;;;;;;22.83;45.32;97353.63;6442379;22;20297;-70
2024/04/17 03:29:27;;;;;;;12.93;3.90;;;;;;;22.91;45.84;97347.16;6484638;22;20000;-72
2024/04/17 03:31:53;;;;;;;25.38;4.07;;;;;;;22.99;45.92;97352.13;6484215;22;20364;-73
2024/04/17 03:34:18;;;;;;;17.50;4.57;;;;;;;22.99;45.25;97340.69;6442372;22;19989;-71
2024/04/17 03:36:44;;;;;;;21.40;3.85;;;;;;;23.04;45.35;97340.81;6400236;22;19993;-74
2024/04/17 03:39:12;;;;;;;19.10;4.28;;;;;;;23.05;45.37;97337.91;6440968;22;19989;-71
2024/04/17 03:41:37;;;;;;;11.63;4.07;;;;;;;23.10;44.98;97327.44;6441944;22;19993;-69
2024/04/17 03:44:03;;;;;;;38.58;4.18;;;;;;;23.16;44.98;97317.69;6483621;22;19993;-69
2024/04/17 03:46:28;;;;;;;9.25;3.50;;;;;;;23.22;44.69;97318.63;6442055;22;20349;-70
2024/04/17 03:48:54;;;;;;;18.35;4.28;;;;;;;23.26;44.82;97311.78;6548255;21;20409;-69
2024/04/17 03:51:19;;;;;;;11.05;4.00;;;;;;;23.27;44.65;97330.19;6580697;21;19993;-67
2024/04/17 03:53:45;;;;;;;9.60;3.65;;;;;;;23.21;44.77;97330.31;6492312;21;20000;-66
2024/04/17 03:56:10;;;;;;;10.30;3.75;;;;;;;23.11;45.34;97338.88;6491952;21;20304;-68
2024/04/17 03:58:36;;;;;;;18.83;4.03;;;;;;;23.08;45.67;97352.66;6535464;21;20404;-68
2024/04/17 04:01:01;;;;;;;12.10;3.97;;;;;;;23.06;46.26;97354.72;6450473;21;19989;-68
2024/04/17 04:03:27;;;;;;;14.02;3.75;;;;;;;23.07;45.91;97358.97;6534841;21;19995;-67
2024/04/17 04:05:52;;;;;;;19.45;4.00;;;;;;;23.09;45.51;97364.94;6535790;21;19993;-66
2024/04/17 04:08:18;;;;;;;15.45;4.25;;;;;;;23.13;45.24;97371.38;6493533;21;20388;-70
2024/04/17 04:10:43;;;;;;;17.50;4.18;;;;;;;23.22;44.29;97363.88;6492804;21;20011;-72
2024/04/17 04:13:09;;;;;;;21.00;4.25;;;;;;;23.29;43.92;97361.91;6492795;21;19992;-72
2024/04/17 04:15:34;;;;;;;18.92;3.88;;;;;;;23.42;44.86;97379.47;6451691;21;19992;-76
2024/04/17 04:18:00;;;;;;;20.52;3.90;;;;;;;23.49;45.13;97367.66;6492469;21;19989;-69
2024/04/17 04:20:26;;;;;;;21.13;4.15;;;;;;;23.63;44.67;97372.75;6535154;21;20466;-73
2024/04/17 04:22:51;;;;;;;11.85;4.03;;;;;;;23.73;44.60;97364.97;6485849;21;19999;-73
2024/04/17 04:25:17;;;;;;;18.80;5.15;;;;;;;23.87;44.45;97356.75;6491189;21;19992;-73
2024/04/17 04:27:42;;;;;;;12.77;4.10;;;;;;;24.03;43.90;97353.31;6492696;21;19989;-76
2024/04/17 04:30:08;;;;;;;13.70;3.85;;;;;;;24.26;43.55;97349.75;6493211;21;19989;-76
2024/04/17 04:32:33;;;;;;;12.40;4.13;;;;;;;24.51;42.65;97357.41;6493124;21;20003;-74
2024/04/17 04:34:59;;;;;;;13.75;4.03;;;;;;;24.48;42.09;97349.88;6451050;21;20405;-71
2024/04/17 04:37:25;;;;;;;13.23;3.83;;;;;;;24.30;42.03;97358.88;6581002;21;20074;-72
2024/04/17 04:39:51;;;;;;;13.85;3.47;;;;;;;24.12;42.02;97351.91;6490411;21;19999;-71
2024/04/17 04:42:16;;;;;;;13.55;4.05;;;;;;;24.01;41.99;97350.88;6492624;21;19992;-71
2024/04/17 04:44:42;;;;;;;14.98;3.60;;;;;;;23.96;41.77;97342.81;6533407;21;20004;-69
2024/04/17 04:47:07;;;;;;;12.98;3.60;;;;;;;23.91;41.90;97340.06;6579461;21;19988;-68
2024/04/17 04:49:35;;;;;;;8.48;3.33;;;;;;;23.85;41.95;97341.00;6491018;21;19999;-69
2024/04/17 04:52:01;;;;;;;18.38;3.53;;;;;;;23.79;41.99;97348.03;6492725;21;20000;-69
2024/04/17 04:54:27;;;;;;;12.43;3.30;;;;;;;23.67;42.16;97339.25;6492432;21;19993;-71
2024/04/17 04:56:53;;;;;;;9.32;3.33;;;;;;;23.59;42.17;97345.75;6535710;21;19992;-69
2024/04/17 04:59:18;;;;;;;11.90;3.25;;;;;;;23.57;42.42;97347.84;6493043;21;19988;-68
2024/04/17 05:01:44;;;;;;;15.68;3.67;;;;;;;23.61;42.26;97348.19;6535343;21;20420;-70
2024/04/17 05:04:09;;;;;;;12.65;3.53;;;;;;;24.38;41.03;97350.50;6450633;21;19988;-69
2024/04/17 05:06:35;;;;;;;11.57;3.45;;;;;;;25.08;39.66;97356.47;6581744;21;20393;-69
2024/04/17 05:09:01;;;;;;;13.40;3.42;;;;;;;25.54;38.65;97360.84;6495075;21;19988;-70
2024/04/17 05:11:26;;;;;;;12.02;3.15;;;;;;;26.15;37.32;97345.53;6495154;21;19989;-70
2024/04/17 05:13:52;;;;;;;9.70;3.25;;;;;;;26.95;36.23;97336.13;6452316;21;20393;-70
2024/04/17 05:16:17;;;;;;;10.00;2.83;;;;;;;28.02;34.53;97333.19;6582885;21;19996;-69
2024/04/17 05:18:43;;;;;;;15.60;3.58;;;;;;;28.51;33.39;97329.22;6537433;21;19992;-70
2024/04/17 05:21:08;;;;;;;10.30;3.15;;;;;;;28.31;33.58;97314.72;6493392;21;20460;-69
2024/04/17 05:23:34;;;;;;;11.00;3.13;;;;;;;27.97;34.16;97330.50;6494353;21;19996;-69
2024/04/17 05:25:59;;;;;;;14.15;3.45;;;;;;;27.68;34.90;97338.16;6452035;21;20281;-68
2024/04/17 05:28:25;;;;;;;14.45;3.22;;;;;;;27.45;35.02;97332.13;6494674;21;19988;-69
2024/04/17 05:30:59;;;;;;;15.15;3.10;;;;;;;27.42;35.42;97335.34;6493262;21;20003;-70
2024/04/17 05:33:28;;;;;;;11.45;3.03;;;;;;;27.42;35.33;97330.81;6537420;21;20003;-70
2024/04/17 05:35:53;;;;;;;14.73;3.15;;;;;;;27.32;35.28;97328.06;6494780;21;20024;-69
2024/04/17 05:38:19;;;;;;;14.23;3.45;;;;;;;27.36;35.22;97331.03;6494308;21;20407;-69
2024/04/17 05:40:45;;;;;;;12.02;3.22;;;;;;;27.98;34.77;97327.53;6452189;21;20064;-69
2024/04/17 05:43:10;;;;;;;14.45;3.28;;;;;;;29.23;32.34;97334.59;6582329;21;19993;-69
2024/04/17 05:45:36;;;;;;;13.60;3.45;;;;;;;29.53;31.96;97327.53;6536355;21;19992;-69
2024/04/17 05:48:01;;;;;;;21.98;3.63;;;;;;;30.19;31.26;97322.91;6493780;21;20082;-71
2024/04/17 05:50:27;;;;;;;18.33;3.88;;;;;;;30.85;29.81;97321.63;6491796;21;19992;-70
2024/04/17 05:52:52;;;;;;;12.18;3.47;;;;;;;31.18;30.06;97329.97;6494656;21;19988;-70
2024/04/17 05:55:18;;;;;;;18.08;3.92;;;;;;;31.61;29.54;97329.25;6537020;21;20393;-71
2024/04/17 05:57:43;;;;;;;15.52;4.10;;;;;;;31.49;29.39;97319.66;6582571;21;19989;-71
2024/04/17 06:00:10;;;;;;;12.32;3.75;;;;;;;31.67;28.79;97318.09;6535719;21;20061;-71
2024/04/17 06:02:35;;;;;;;11.48;4.05;;;;;;;32.13;28.15;97319.41;6494381;21;20001;-70
2024/04/17 06:05:00;;;;;;;11.57;3.75;;;;;;;32.66;27.48;97323.75;6493939;21;20356;-70
2024/04/17 06:07:26;;;;;;;12.45;3.58;;;;;;;33.14;27.10;97315.34;6493850;21;19992;-70
2024/04/17 06:09:51;;;;;;;15.23;4.05;;;;;;;33.40;26.29;97317.59;6582171;21;20479;-70
2024/04/17 06:12:17;;;;;;;11.90;3.78;;;;;;;33.49;26.49;97325.78;6536558;21;19988;-70
2024/04/17 06:14:42;;;;;;;13.15;4.18;;;;;;;33.43;25.97;97310.78;6493789;21;19989;-69
2024/04/17 06:17:08;;;;;;;12.75;3.47;;;;;;;33.38;26.24;97313.59;6493712;21;20385;-71
2024/04/17 06:19:33;;;;;;;14.02;3.75;;;;;;;33.43;26.50;97313.47;6492961;21;20003;-70
2024/04/17 06:22:00;;;;;;;13.07;4.03;;;;;;;33.29;26.68;97302.66;6536961;21;20002;-71
2024/04/17 06:24:25;;;;;;;17.00;4.80;;;;;;;33.61;25.58;97317.19;6536563;21;20003;-71
2024/04/17 06:26:51;;;;;;;15.68;3.80;;;;;;;33.95;25.37;97311.31;6536978;21;19993;-70
2024/04/17 06:29:16;;;;;;;20.08;4.20;;;;;;;34.38;25.04;97316.34;6536574;21;20478;-71
2024/04/17 06:31:42;;;;;;;13.05;3.92;;;;;;;34.14;25.88;97323.91;6536058;21;19999;-70
2024/04/17 06:34:07;;;;;;;19.75;5.13;;;;;;;33.82;26.03;97317.56;6494042;21;19988;-71
2024/04/17 06:36:32;;;;;;;17.17;5.10;;;;;;;33.42;26.50;97314.59;6536681;21;19999;-70
2024/04/17 06:39:00;;;;;;;18.55;5.70;;;;;;;32.93;26.54;97314.91;6494234;21;20000;-69
2024/04/17 06:41:26;;;;;;;18.35;5.68;;;;;;;32.38;27.67;97312.81;6496208;21;20062;-74
2024/04/17 06:43:51;;;;;;;16.33;5.60;;;;;;;31.96;28.38;97308.28;6493832;21;20420;-70
2024/04/17 06:46:17;;;;;;;17.15;5.85;;;;;;;31.71;28.90;97312.94;6493701;21;20007;-73
2024/04/17 06:48:42;;;;;;;16.48;5.28;;;;;;;31.79;28.45;97306.91;6493415;21;20000;-71
2024/04/17 06:51:08;;;;;;;13.65;4.28;;;;;;;32.09;27.43;97296.81;6536725;21;20003;-71
2024/04/17 06:53:36;;;;;;;15.38;3.83;;;;;;;31.98;27.71;97288.03;6493242;21;20058;-71
2024/04/17 06:56:02;;;;;;;12.90;3.70;;;;;;;31.98;27.31;97290.72;6536540;21;20304;-72
2024/04/17 06:58:27;;;;;;;15.70;3.50;;;;;;;32.59;26.75;97286.31;6493358;21;19988;-73
2024/04/17 07:00:53;;;;;;;11.68;3.30;;;;;;;32.61;26.20;97277.91;6536778;21;20057;-70
2024/04/17 07:03:18;;;;;;;11.20;3.30;;;;;;;33.27;25.93;97275.94;6536888;21;19998;-71
2024/04/17 07:05:44;;;;;;;12.65;3.65;;;;;;;33.76;24.76;97270.88;6536578;21;20000;-70
2024/04/17 07:08:10;;;;;;;17.17;3.50;;;;;;;33.89;24.79;97261.94;6493548;21;20417;-70
2024/04/17 07:10:35;;;;;;;13.80;3.40;;;;;;;33.81;25.27;97259.13;6536349;21;20002;-70
2024/04/17 07:13:01;;;;;;;10.13;2.70;;;;;;;33.70;25.20;97261.25;6493920;21;19992;-71
2024/04/17 07:15:26;;;;;;;9.85;3.13;;;;;;;33.85;25.65;97252.03;6451427;21;20003;-69
2024/04/17 07:17:52;;;;;;;11.80;3.03;;;;;;;33.79;24.57;97243.22;6581718;21;20003;-69
2024/04/17 07:20:17;;;;;;;17.35;3.33;;;;;;;34.47;24.29;97235.13;6536064;21;20000;-71
2024/04/17 07:22:43;;;;;;;18.23;3.28;;;;;;;34.93;23.11;97220.41;6493342;21;19992;-71
2024/04/17 07:25:10;;;;;;;16.52;3.22;;;;;;;35.37;22.75;97228.69;6536794;21;19992;-72
2024/04/17 07:27:36;;;;;;;;;;;;;;;35.41;22.87;97235.06;6538211;21;19992;-70
2024/04/17 07:30:01;;;;;;;12.38;2.90;;;;;;;35.73;22.69;97232.25;6581494;21;19928;-71
2024/04/17 07:32:27;;;;;;;14.40;3.30;;;;;;;36.13;21.91;97223.94;6535846;21;19992;-69
2024/04/17 07:34:53;;;;;;;13.23;2.92;;;;;;;36.28;21.16;97217.22;6451039;21;20058;-69
2024/04/17 07:37:19;;;;;;;14.45;2.83;;;;;;;36.51;21.14;97232.19;6492380;21;20289;-70
2024/04/17 07:39:44;;;;;;;17.00;3.35;;;;;;;36.83;21.19;97221.09;6534917;21;19999;-69
2024/04/17 07:42:10;;;;;;;12.20;2.75;;;;;;;37.09;20.62;97224.50;6535953;21;19999;-69
2024/04/17 07:44:35;;;;;;;12.60;3.03;;;;;;;37.28;20.60;97229.53;6535622;21;20002;-71
2024/04/17 07:47:01;;;;;;;13.23;3.10;;;;;;;37.39;20.91;97229.97;6535870;21;19999;-70
2024/04/17 07:49:26;;;;;;;14.50;3.05;;;;;;;37.65;20.85;97226.25;6533863;21;20300;-71
2024/04/17 07:51:51;;;;;;;11.35;2.92;;;;;;;37.93;19.88;97221.09;6536013;21;20004;-70
2024/04/17 07:54:17;;;;;;;9.98;2.60;;;;;;;37.71;19.98;97222.25;6581972;21;19992;-71
2024/04/17 07:56:43;;;;;;;13.80;2.80;;;;;;;37.58;20.60;97215.91;6536057;21;19989;-69
2024/04/17 07:59:08;;;;;;;11.68;3.00;;;;;;;37.39;20.13;97208.19;6536070;21;19989;-69
2024/04/17 08:01:33;;;;;;;12.18;2.80;;;;;;;37.57;20.32;97210.78;6492722;21;20278;-71
2024/04/17 08:03:59;;;;;;;13.98;2.78;;;;;;;37.64;20.53;97208.34;6493228;21;19988;-70
2024/04/17 08:06:25;;;;;;;15.18;3.08;;;;;;;37.18;20.40;97199.16;6581245;21;19988;-69
2024/04/17 08:08:50;;;;;;;11.85;2.70;;;;;;;36.78;20.43;97197.59;6581257;21;19992;-70
2024/04/17 08:11:19;;;;;;;10.43;2.97;;;;;;;36.27;21.01;97188.50;6535581;21;20000;-70
2024/04/17 08:13:44;;;;;;;9.75;2.78;;;;;;;35.93;21.38;97179.25;6494930;21;19997;-69
2024/04/17 08:16:10;;;;;;;10.50;2.75;;;;;;;35.51;22.01;97193.28;6535924;21;19996;-70
2024/04/17 08:18:35;;;;;;;13.30;3.10;;;;;;;35.39;21.63;97184.97;6493280;21;20007;-70
2024/04/17 08:21:01;;;;;;;13.10;3.55;;;;;;;35.42;22.16;97187.81;6535277;21;20070;-71
2024/04/17 08:23:26;;;;;;;16.33;3.08;;;;;;;35.12;22.68;97173.25;6492983;21;19993;-70
2024/04/17 08:25:52;;;;;;;12.70;3.17;;;;;;;35.02;22.22;97163.50;6534659;21;20365;-68
2024/04/17 08:28:17;;;;;;;13.52;3.28;;;;;;;34.82;22.84;97172.19;6492526;21;19989;-73
2024/04/17 08:30:43;;;;;;;14.43;3.13;;;;;;;34.52;22.53;97170.00;6493027;21;20008;-70
2024/04/17 08:33:08;;;;;;;16.20;3.28;;;;;;;34.58;22.86;97165.22;6450129;21;19988;-70
2024/04/17 08:35:37;;;;;;;14.98;3.42;;;;;;;34.40;22.60;97143.47;6535459;21;19989;-70
2024/04/17 08:38:03;;;;;;;16.83;3.47;;;;;;;34.12;23.04;97155.56;6492669;21;20062;-70
2024/04/17 08:40:28;;;;;;;23.88;3.50;;;;;;;33.80;22.25;97143.91;6449009;21;19992;-70
2024/04/17 08:42:54;;;;;;;13.88;2.70;;;;;;;33.92;22.39;97143.34;6452692;21;20360;-71
2024/04/17 08:45:33;;;;;;;23.70;3.15;;;;;;;33.62;22.22;97142.94;6535987;21;19988;-70
2024/04/17 08:48:01;;;;;;;16.75;3.10;;;;;;;33.53;22.23;97137.47;6495330;21;19996;-74
2024/04/17 08:50:29;;;;;;;20.90;3.17;;;;;;;33.48;22.23;97130.25;6495671;21;20020;-69
2024/04/17 08:52:56;;;;;;;18.98;3.38;;;;;;;33.43;21.74;97132.28;6454395;21;20328;-70
2024/04/17 08:55:21;;;;;;;16.30;3.05;;;;;;;33.61;21.76;97157.59;6494753;21;20007;-71
2024/04/17 08:57:47;;;;;;;15.43;3.03;;;;;;;33.69;21.42;97136.00;6452386;21;19992;-72
2024/04/17 09:00:13;;;;;;;24.65;2.83;;;;;;;33.66;20.57;97120.38;6494566;21;20421;-70
2024/04/17 09:02:38;;;;;;;23.00;2.92;;;;;;;33.77;20.92;97102.00;6493762;21;19988;-71
2024/04/17 09:05:04;;;;;;;21.83;2.78;;;;;;;33.90;20.51;97146.34;6537706;21;20278;-71
2024/04/17 09:07:29;;;;;;;31.77;3.28;;;;;;;33.81;20.58;97092.19;6538270;21;20074;-71
2024/04/17 09:09:55;;;;;;;20.48;3.30;;;;;;;33.83;20.16;97100.00;6494051;21;19988;-70
2024/04/17 09:12:20;;;;;;;21.65;2.85;;;;;;;33.66;20.42;97100.66;6538216;21;19988;-71
2024/04/17 09:14:46;;;;;;;14.32;2.75;;;;;;;33.72;20.02;97115.69;6452621;21;20004;-72
2024/04/17 09:17:11;;;;;;;28.08;2.97;;;;;;;33.54;19.52;97096.59;6537806;21;20423;-74
2024/04/17 09:19:37;;;;;;;25.85;2.83;;;;;;;33.36;20.29;97111.84;6582786;21;19989;-76
2024/04/17 09:22:02;;;;;;;16.40;3.60;;;;;;;33.12;19.69;97082.38;6494579;21;20308;-71
2024/04/17 09:24:29;;;;;;;16.98;2.60;;;;;;;33.06;20.29;97096.31;6494876;21;19992;-76
2024/04/17 09:26:54;;;;;;;20.77;3.15;;;;;;;32.88;20.67;97098.03;6452821;21;19999;-73
2024/04/17 09:29:20;;;;;;;16.15;2.72;;;;;;;32.95;20.38;97080.31;6494860;21;19988;-71
2024/04/17 09:31:46;;;;;;;12.30;2.67;;;;;;;33.21;20.11;97076.25;6451792;21;20355;-71
2024/04/17 09:34:18;;;;;;;15.30;2.63;;;;;;;33.40;19.26;97081.50;6494596;21;19989;-72
2024/04/17 09:36:47;;;;;;;13.70;2.63;;;;;;;33.44;19.78;97056.25;6497038;21;19992;-70
2024/04/17 09:39:13;;;;;;;24.08;3.13;;;;;;;33.30;19.67;97059.00;6495483;21;19992;-70
2024/04/17 09:41:39;;;;;;;15.27;2.42;;;;;;;33.27;19.97;97069.63;6492637;21;20274;-69
2024/04/17 09:44:05;;;;;;;19.13;2.58;;;;;;;32.95;19.94;97049.78;6494650;21;19992;-71
2024/04/17 09:46:31;;;;;;;15.63;2.67;;;;;;;32.85;20.09;97052.72;6452544;21;19992;-70
2024/04/17 09:48:57;;;;;;;16.65;2.85;;;;;;;32.78;20.14;97067.44;6537093;21;19999;-72
2024/04/17 09:51:22;;;;;;;17.58;2.50;;;;;;;32.74;20.20;97047.53;6536668;21;19996;-69
2024/04/17 09:54:10;;;;;;;18.42;2.53;;;;;;;32.76;20.02;97047.22;6494363;21;20412;-70
2024/04/17 09:56:35;;;;;;;;;;;;;;;32.73;20.21;97040.50;6538310;21;19992;-70
2024/04/17 09:59:01;;;;;;;23.15;2.60;;;;;;;32.59;20.08;97059.44;6537242;21;19937;-69
2024/04/17 10:01:28;;;;;;;17.05;2.25;;;;;;;32.39;20.58;97047.13;6494523;21;19989;-70
2024/04/17 10:03:53;;;;;;;24.63;2.85;;;;;;;32.27;20.37;97053.00;6453385;21;20288;-70
2024/04/17 10:06:19;;;;;;;11.18;2.42;;;;;;;32.12;20.53;97041.72;6537349;21;19988;-70
2024/04/17 10:08:44;;;;;;;17.85;3.00;;;;;;;31.93;20.93;97061.47;6494272;21;19988;-72
2024/04/17 10:11:10;;;;;;;20.05;3.28;;;;;;;31.80;20.91;97030.66;6494883;21;19992;-71
2024/04/17 10:13:35;;;;;;;14.15;2.38;;;;;;;31.58;20.83;97049.38;6583219;21;19988;-70
2024/04/17 10:16:01;;;;;;;23.55;2.92;;;;;;;31.41;21.51;97028.31;6582620;21;20335;-71
2024/04/17 10:18:26;;;;;;;17.08;2.63;;;;;;;31.25;21.32;97035.81;6537117;21;19996;-71
2024/04/17 10:20:53;;;;;;;20.67;2.72;;;;;;;31.12;22.10;97038.19;6537119;21;19999;-72
2024/04/17 10:23:19;;;;;;;9.43;2.50;;;;;;;30.90;22.52;97027.16;6536010;21;19988;-70
2024/04/17 10:25:48;;;;;;;15.48;2.58;;;;;;;30.84;22.60;97029.91;6537143;21;20260;-70
2024/04/17 10:28:15;;;;;;;13.60;2.60;;;;;;;30.77;22.38;97036.75;6495478;21;19999;-70
2024/04/17 10:30:40;;;;;;;20.45;3.05;;;;;;;30.48;22.93;97006.16;6492558;21;19992;-69
2024/04/17 10:33:28;;;;;;;20.15;3.05;;;;;;;30.46;23.30;97007.53;6536984;21;19992;-70
2024/04/17 10:35:54;;;;;;;18.85;2.90;;;;;;;30.48;23.38;97005.34;6537077;21;20280;-70
2024/04/17 10:38:24;;;;;;;14.00;3.03;;;;;;;30.48;23.62;96992.69;6534683;21;19998;-69
2024/04/17 10:40:55;;;;;;;20.92;2.80;;;;;;;30.30;23.54;97002.31;6537649;21;20007;-69
2024/04/17 10:43:21;;;;;;;16.10;2.70;;;;;;;30.25;23.86;97006.94;6493985;21;20004;-70
2024/04/17 10:45:57;;;;;;;18.10;3.08;;;;;;;30.19;24.11;96992.75;6493500;21;19999;-72
2024/04/17 10:48:22;;;;;;;12.40;2.83;;;;;;;30.20;23.96;96993.56;6536383;21;20377;-74
2024/04/17 10:50:48;;;;;;;17.45;3.08;;;;;;;30.17;24.04;96994.13;6451377;21;20007;-71
2024/04/17 10:53:13;;;;;;;16.48;3.10;;;;;;;30.08;24.21;96984.00;6451688;21;19997;-71
2024/04/17 10:55:39;;;;;;;21.65;2.60;;;;;;;30.02;24.51;96965.53;6451627;21;20000;-71
2024/04/17 10:58:04;;;;;;;15.85;2.92;;;;;;;29.91;24.60;96972.91;6493425;21;20003;-70
2024/04/17 11:00:30;;;;;;;17.08;3.10;;;;;;;29.95;24.54;96968.53;6493333;21;20308;-70
2024/04/17 11:02:55;;;;;;;12.60;2.63;;;;;;;29.93;24.29;96965.34;6536467;21;20008;-74
2024/04/17 11:05:24;;;;;;;12.00;2.90;;;;;;;29.89;24.13;96967.00;6536241;21;20004;-73
2024/04/17 11:07:52;;;;;;;18.13;3.17;;;;;;;29.86;24.81;96962.19;6536363;21;19996;-72
2024/04/17 11:10:18;;;;;;;11.07;2.50;;;;;;;29.84;24.83;96950.91;6452085;21;20038;-70
2024/04/17 11:12:43;;;;;;;16.23;2.70;;;;;;;29.77;24.84;96949.31;6536399;21;19992;-68
2024/04/17 11:15:10;;;;;;;12.45;2.70;;;;;;;29.75;24.91;96961.47;6493675;21;20004;-68
2024/04/17 11:17:35;;;;;;;14.60;2.70;;;;;;;29.70;25.08;96942.72;6494429;21;19988;-71
2024/04/17 11:20:01;;;;;;;14.57;2.90;;;;;;;29.69;25.11;96962.59;6450684;21;20459;-70
2024/04/17 11:22:27;;;;;;;16.25;2.80;;;;;;;29.71;25.08;96952.34;6450809;21;20029;-70
2024/04/17 11:24:57;;;;;;;14.85;2.70;;;;;;;29.67;25.10;96948.66;6535785;21;19984;-68
2024/04/17 11:27:22;;;;;;;10.95;2.67;;;;;;;29.61;25.08;96969.41;6537352;21;20004;-69
2024/04/17 11:29:48;;;;;;;14.73;2.67;;;;;;;29.48;25.18;96954.75;6536218;21;20065;-69
2024/04/17 11:32:14;;;;;;;13.55;3.15;;;;;;;29.42;25.38;96937.84;6493093;21;20003;-69
2024/04/17 11:34:40;;;;;;;14.45;2.72;;;;;;;29.42;25.30;96942.44;6536035;21;20355;-70
2024/04/17 11:37:06;;;;;;;20.00;2.92;;;;;;;29.40;25.15;96958.84;6493219;21;20003;-70
2024/04/17 11:39:32;;;;;;;17.20;2.80;;;;;;;29.34;25.03;96956.47;6493446;21;20288;-69
2024/04/17 11:42:01;;;;;;;18.77;2.88;;;;;;;29.24;25.35;96946.63;6493510;21;19992;-70
2024/04/17 11:44:26;;;;;;;17.55;2.38;;;;;;;29.34;24.83;96930.41;6581701;21;20003;-70
2024/04/17 11:46:55;;;;;;;21.77;2.83;;;;;;;29.32;24.95;96937.13;6493205;21;20330;-69
2024/04/17 11:49:22;;;;;;;15.65;2.50;;;;;;;29.34;25.06;96937.69;6493974;21;20044;-69
2024/04/17 11:51:47;;;;;;;14.57;3.00;;;;;;;29.21;25.07;96918.44;6536763;21;20067;-69
2024/04/17 11:54:13;;;;;;;14.68;2.75;;;;;;;29.30;24.80;96929.34;6535752;21;20374;-69
2024/04/17 11:56:38;;;;;;;16.40;2.70;;;;;;;29.34;24.80;96932.31;6535245;21;20068;-70
2024/04/17 11:59:04;;;;;;;13.15;2.35;;;;;;;29.31;24.82;96963.22;6493092;21;20010;-70
2024/04/17 12:01:29;;;;;;;13.95;2.80;;;;;;;29.26;24.75;96933.72;6492770;21;19992;-70
2024/04/17 12:03:55;;;;;;;13.70;2.30;;;;;;;29.31;24.66;96960.53;6581467;21;20418;-70
2024/04/17 12:06:20;;;;;;;12.82;2.90;;;;;;;29.16;24.90;96942.63;6492706;21;19993;-72
2024/04/17 12:08:46;;;;;;;13.60;2.33;;;;;;;29.05;24.97;96933.84;6492892;21;19992;-69
2024/04/17 12:11:12;;;;;;;18.20;2.90;;;;;;;29.02;25.19;96910.22;6451038;21;20301;-70
2024/04/17 12:13:37;;;;;;;15.82;2.67;;;;;;;28.97;25.19;96922.88;6580987;21;20289;-70
2024/04/17 12:16:03;;;;;;;13.70;2.78;;;;;;;29.06;25.58;96921.22;6493001;21;19992;-71
2024/04/17 12:18:29;;;;;;;16.13;2.60;;;;;;;29.10;25.27;96913.38;6450070;21;19992;-71
2024/04/17 12:20:54;;;;;;;14.20;2.80;;;;;;;29.08;25.13;96919.03;6535712;21;19992;-70
2024/04/17 12:23:20;;;;;;;15.27;2.97;;;;;;;29.12;25.52;96913.94;6492763;21;20304;-71
2024/04/17 12:28:30;;;;;;;14.18;2.75;;;;;;;29.02;25.38;96936.31;6506427;21;20070;-70
2024/04/17 12:30:56;;;;;;;12.00;2.80;;;;;;;28.96;25.98;96908.66;6533962;21;20004;-71
2024/04/17 12:33:22;;;;;;;13.68;3.08;;;;;;;29.00;26.16;96908.91;6493445;21;20446;-70
2024/04/17 12:35:47;;;;;;;21.00;2.88;;;;;;;28.99;25.77;96931.50;6492311;21;19993;-70
2024/04/17 12:38:13;;;;;;;15.57;2.72;;;;;;;28.99;26.10;96916.16;6492917;21;19992;-69
2024/04/17 12:40:39;;;;;;;16.23;2.72;;;;;;;28.91;26.35;96907.91;6493409;21;20016;-69
2024/04/17 12:43:06;;;;;;;19.10;2.80;;;;;;;28.97;26.57;96896.84;6449373;21;20395;-71
2024/04/17 12:45:32;;;;;;;15.95;2.72;;;;;;;28.99;26.50;96897.38;6581291;21;19997;-71
2024/04/17 12:47:58;;;;;;;10.35;2.70;;;;;;;28.95;26.80;96882.88;6534178;21;19988;-71
2024/04/17 12:50:24;;;;;;;19.90;2.75;;;;;;;28.98;26.74;96876.94;6534977;21;20104;-72
2024/04/17 12:52:51;;;;;;;14.27;2.95;;;;;;;28.88;26.84;96891.28;6535518;21;19989;-70
2024/04/17 12:55:16;;;;;;;11.85;2.78;;;;;;;28.79;27.22;96892.16;6450635;21;19996;-69
2024/04/17 12:57:42;;;;;;;19.95;3.00;;;;;;;28.73;27.35;96890.59;6580963;21;19999;-69
2024/04/17 13:00:08;;;;;;;14.52;2.58;;;;;;;28.72;26.87;96897.03;6535255;21;20307;-71
2024/04/17 13:02:33;;;;;;;12.27;2.90;;;;;;;28.64;27.34;96882.34;6535035;21;20003;-69
2024/04/17 13:04:59;;;;;;;19.63;2.90;;;;;;;28.55;27.61;96887.47;6581495;21;19992;-70
2024/04/17 13:07:24;;;;;;;20.13;3.60;;;;;;;28.58;27.27;96907.63;6535723;21;19993;-71
2024/04/17 13:09:50;;;;;;;13.07;2.90;;;;;;;28.41;27.56;96881.09;6492397;21;19992;-70
2024/04/17 13:12:15;;;;;;;7.60;2.22;;;;;;;28.34;27.62;96882.22;6492402;21;20363;-69
2024/04/17 13:14:41;;;;;;;17.00;3.22;;;;;;;28.22;27.69;96911.25;6491599;21;19998;-73
2024/04/17 13:17:06;;;;;;;13.75;2.70;;;;;;;28.24;27.98;96884.16;6492051;21;19988;-69
2024/04/17 13:19:32;;;;;;;14.73;2.95;;;;;;;28.14;27.83;96891.16;6492615;21;19988;-70
2024/04/17 13:21:57;;;;;;;14.77;3.13;;;;;;;28.18;27.89;96894.13;6534866;21;20396;-70
2024/04/17 13:24:23;;;;;;;19.33;2.80;;;;;;;28.16;28.13;96898.94;6492045;21;19992;-70
2024/04/17 13:26:49;;;;;;;15.50;2.88;;;;;;;28.16;27.89;96896.25;6535904;21;19992;-69
2024/04/17 13:29:15;;;;;;;12.73;2.53;;;;;;;28.00;27.71;96897.41;6494152;21;19992;-70
2024/04/17 13:31:40;;;;;;;17.65;2.70;;;;;;;27.87;27.96;96880.81;6493463;21;20065;-69
2024/04/17 13:34:06;;;;;;;18.20;3.20;;;;;;;27.71;27.27;96888.09;6493879;21;19992;-69